Hlavní strana
METAR-TAF:

METAR-TAF

Letiště :

Tulcea, Rumunsko

zeměpisná šířka: 45-11N, zeměpisná délka: 028-49E, výška: 4 m

Aktuální stav počasí

Zpráva byla vytvořena před 24 minutami, v 07:30 UTC
Jihojihovýchodní vítr 7 kt
Teplota 10°C
Vlhkost vzduchu 93%
Tlak 1008 hPa
Viditelnost 10 km a více
Oblačno až skoro zataženo ve výšce 1500 ft

METAR: LRTC 060730Z 16007KT 9999 BKN015 10/09 Q1008

Čas: 09:54 (07:54 UTC)

Předpověď počasí

Zpráva byla vytvořena před 2 hodinami a 54 minutami, v 05:00 UTC
Předpověď platná od 06 v 06 UTC do 06 v 15 UTC
Jižní vítr 10 kt
Viditelnost: 5000 m
Polojasno ve výšce 1500 ft
Oblačno až skoro zataženo ve výšce 2500 ft
kouřmo
Dočasný
od 06 v 06 UTC do 06 v 08 UTC
Viditelnost: 1500 m
Oblačno až skoro zataženo ve výšce 1000 ft
Oblačno až skoro zataženo ve výšce 2000 ft
kouřmo
Změna
od 06 v 08 UTC do 06 v 10 UTC
Viditelnost 10 km a více

TAF: LRTC 060500Z 0606/0615 18010KT 5000 BR SCT015 BKN025 TEMPO 0606/0608 1500 BR BKN010 BKN020 BECMG 0608/0610 9999 NSW

Stav a předpovědi počasí z více než 4 000 letišť (zprávy METAR a TAF).

Červené a žluté tečky na mapě představují dostupné meteorologické stanice.

Když kurzor umístíte na tečku, zobrazí se název stanice.

Pak kliknutím zobrazíte stav a předpověď počasí.

Chcete-li změnit mapu, kliknutím na zelené tlačítko se znaménkem +mapu přiblížíte, kliknutím na zelené tlačítko se znaménkem – mapu oddálíte a kliknutím na zelené šipky přejdete na sousední mapy.


METAR-TAF: